Seal — PB4599 — position and weather

sailwx.info

Track history (hours):
 
Tides and Currents Weather Stations Pressure Air Temp Water Temp Dewpoint Dewpoint Depression Visibility Wind Speed Wind Dir Waves Ship Positions

Seal

Last reported at 2017-Jun-17 16:15 UTC. Time now 2017-Jun-24 07:10 UTC.
Position N 52°46' E 005°07'.

Length 11 m.

Type: Pleasure craft. MMSI: 244660324.

Date/timePositionNaut miles runAvg speedWind from/ knotsBaromVisibWave heightAir tempDewpointWater temp
2017-Jun-17 16:15N 52°46' E 005°07'0 0.0
2017-Jun-17 16:00N 52°46' E 005°07'1 1.1
2017-Jun-17 15:30N 52°47' E 005°08'3 5.5
2017-Jun-17 15:00N 52°48' E 005°11'3 5.4
2017-Jun-17 14:30N 52°50' E 005°14'5 4.7
2017-Jun-17 13:24N 52°53' E 005°22'0 0.8
2017-Jun-17 13:00N 52°53' E 005°22'2 4.0
2017-Jun-17 12:30N 52°53' E 005°25'3 5.0
2017-Jun-17 11:59N 52°55' E 005°29'3 3.1
2017-Jun-17 10:51N 52°58' E 005°32'2 5.0
2017-Jun-17 10:29N 52°59' E 005°29'  
Track history (hours):
 
Tides and Currents Weather Stations Pressure Air Temp Water Temp Dewpoint Dewpoint Depression Visibility Wind Speed Wind Dir Waves Ship Positions

Seal

Last reported at 2017-Jun-17 16:15 UTC. Time now 2017-Jun-24 07:10 UTC.
Position N 52°46' E 005°07'.

Length 11 m.

Type: Pleasure craft. MMSI: 244660324.

Date/timePositionNaut miles runAvg speedWind from/ knotsBaromVisibWave heightAir tempDewpointWater temp
2017-Jun-17 16:15N 52°46' E 005°07'0 0.0
2017-Jun-17 16:00N 52°46' E 005°07'1 1.1
2017-Jun-17 15:30N 52°47' E 005°08'3 5.5
2017-Jun-17 15:00N 52°48' E 005°11'3 5.4
2017-Jun-17 14:30N 52°50' E 005°14'5 4.7
2017-Jun-17 13:24N 52°53' E 005°22'0 0.8
2017-Jun-17 13:00N 52°53' E 005°22'2 4.0
2017-Jun-17 12:30N 52°53' E 005°25'3 5.0
2017-Jun-17 11:59N 52°55' E 005°29'3 3.1
2017-Jun-17 10:51N 52°58' E 005°32'2 5.0
2017-Jun-17 10:29N 52°59' E 005°29'  

Dump ship's entire track history